Weather History for Bay City, TX

Change the Weather History Date:

Monday, October 14, 2013

  Actual Average (KLBX) Record (KLBX)
Temperature  
Mean Temperature 79 °F -  
Max Temperature 85 °F 78 °F 88 °F (2003)
Min Temperature 73 °F 60 °F 48 °F (2004)
Cooling Degree Days 14    
Growing Degree Days 29 (Base 50)    
Moisture  
Dew Point 73 °F    
Average Humidity 84    
Maximum Humidity 97    
Minimum Humidity 64    
Precipitation  
Precipitation 0.00 in - - ()
Sea Level Pressure  
Sea Level Pressure 30.02 in    
Wind  
Wind Speed 6 mph (ESE)    
Max Wind Speed 15 mph    
Max Gust Speed 20 mph    
Visibility 9 miles    
Events      
Averages and records for this station are not official NWS values.
T = Trace of Precipitation, MM = Missing Value Source: NWS Daily Summary

Daily Weather History Graph

Daily Weather History Graph

Search for Another Location

Airport:

Trip Planner

Search our weather history database for the weather conditions in past years. The results will help you decide how hot, cold, wet, or windy it might be!

Date:

Astronomy

Oct. 14, 2013 Rise Set
Actual Time 7:24 AM CDT 6:54 PM CDT
Civil Twilight 7:00 AM CDT 7:18 PM CDT
Nautical Twilight 6:32 AM CDT 7:45 PM CDT
Astronomical Twilight 6:05 AM CDT 8:12 PM CDT
Moon 4:06 PM CDT (10/14) 3:02 AM CDT (10/14)
Length of Visible Light 12h 17m
Length of Day
11h 30m
Waxing Gibbous, 79% of the Moon is Illuminated
Oct 14
Waxing Gibbous
Oct 18
Full
Oct 26
Last Quarter
Nov 3
New
Nov 9
First Quarter

Hourly Weather History & Observations

Time (CDT) Temp. Heat Index Dew Point Humidity Pressure Visibility Wind Dir Wind Speed Gust Speed Precip Events Conditions
12:15 AM 74.5 °F - 73.6 °F 97% 30.08 in 2.5 mi NE 3.5 mph - N/A   Clear
12:35 AM 74.5 °F - 73.6 °F 97% 30.07 in 2.5 mi NE 5.8 mph - N/A   Clear
12:55 AM 74.7 °F - 73.8 °F 97% 30.07 in 4.0 mi NE 6.9 mph - N/A   Clear
1:15 AM 74.7 °F - 73.8 °F 97% 30.07 in 4.0 mi ENE 6.9 mph - N/A   Clear
1:35 AM 74.7 °F - 73.8 °F 97% 30.08 in 5.0 mi ENE 3.5 mph - N/A   Clear
1:55 AM 74.7 °F - 73.8 °F 97% 30.08 in 5.0 mi Calm Calm - N/A   Clear
2:15 AM 74.5 °F - 73.6 °F 97% 30.07 in 4.0 mi NE 3.5 mph - N/A   Clear
2:35 AM 74.5 °F - 73.6 °F 97% 30.06 in 5.0 mi East 5.8 mph - N/A   Clear
2:55 AM 74.7 °F - 73.8 °F 97% 30.05 in 7.0 mi East 6.9 mph - N/A   Clear
3:15 AM 74.8 °F - 73.8 °F 96% 30.05 in 10.0 mi ENE 4.6 mph - N/A   Clear
3:35 AM 75.2 °F - 73.9 °F 96% 30.05 in 10.0 mi Calm Calm - N/A   Clear
3:55 AM 74.8 °F - 73.8 °F 96% 30.04 in 7.0 mi NNE 4.6 mph - N/A   Scattered Clouds
4:15 AM 74.8 °F - 73.8 °F 96% 30.03 in 7.0 mi ENE 3.5 mph - N/A   Scattered Clouds
4:35 AM 74.5 °F - 73.4 °F 96% 30.03 in 5.0 mi ENE 5.8 mph - N/A   Clear
4:55 AM 74.3 °F - 73.4 °F 97% 30.02 in 5.0 mi ENE 4.6 mph - N/A   Clear
5:15 AM 74.3 °F - 73.4 °F 97% 30.02 in 7.0 mi East 4.6 mph - N/A   Clear
5:35 AM 74.7 °F - 73.8 °F 97% 30.03 in 7.0 mi ENE 3.5 mph - N/A   Clear
5:55 AM 74.7 °F - 73.8 °F 97% 30.03 in 7.0 mi East 4.6 mph - N/A   Clear
6:15 AM 74.7 °F - 73.6 °F 96% 30.03 in 10.0 mi East 4.6 mph - N/A   Clear
6:35 AM 74.8 °F - 73.4 °F 95% 30.04 in 10.0 mi ESE 3.5 mph - N/A   Clear
6:55 AM 75.2 °F - 73.4 °F 94% 30.04 in 10.0 mi East 5.8 mph - N/A   Clear
7:15 AM 75.4 °F - 73.4 °F 94% 30.06 in 10.0 mi Calm Calm - N/A   Clear
7:35 AM 75.6 °F - 73.4 °F 93% 30.06 in 10.0 mi Calm Calm - N/A   Clear
7:55 AM 75.9 °F - 73.4 °F 92% 30.07 in 10.0 mi Calm Calm - N/A   Clear
8:15 AM 75.6 °F - 73.8 °F 94% 30.07 in 10.0 mi Calm Calm - N/A   Clear
8:35 AM 76.8 °F - 74.5 °F 92% 30.07 in 10.0 mi ESE 5.8 mph - N/A   Clear
8:55 AM 78.6 °F - 74.8 °F 88% 30.07 in 10.0 mi ESE 5.8 mph - N/A   Clear
9:15 AM 79.2 °F - 74.7 °F 86% 30.08 in 10.0 mi ESE 4.6 mph - N/A   Clear
9:35 AM 80.4 °F 85.6 °F 74.8 °F 83% 30.08 in 10.0 mi ESE 8.1 mph - N/A   Clear
9:55 AM 81.1 °F 87.2 °F 75.0 °F 82% 30.08 in 10.0 mi ESE 6.9 mph - N/A   Clear
10:15 AM 82.9 °F 89.9 °F 74.7 °F 76% 30.07 in 10.0 mi ESE 10.4 mph - N/A   Clear
10:35 AM 84.4 °F 92.0 °F 74.5 °F 72% 30.07 in 10.0 mi ESE 10.4 mph - N/A   Clear
10:55 AM 85.3 °F 92.6 °F 73.6 °F 68% 30.07 in 10.0 mi SE 12.7 mph - N/A   Clear
11:15 AM 85.5 °F 91.8 °F 72.5 °F 65% 30.07 in 10.0 mi SE 10.4 mph - N/A   Scattered Clouds
11:35 AM 85.3 °F 91.5 °F 72.5 °F 65% 30.07 in 10.0 mi SSE 10.4 mph - N/A   Mostly Cloudy
11:55 AM 85.5 °F 92.2 °F 72.9 °F 66% 30.06 in 10.0 mi SSE 13.8 mph - N/A   Overcast
12:15 PM 85.1 °F 91.5 °F 72.7 °F 66% 30.06 in 10.0 mi SSE 11.5 mph - N/A   Mostly Cloudy
12:35 PM 84.9 °F 91.8 °F 73.2 °F 68% 30.05 in 10.0 mi SE 11.5 mph - N/A   Mostly Cloudy
12:55 PM 85.1 °F 91.8 °F 73.0 °F 67% 30.03 in 10.0 mi SSE 12.7 mph - N/A   Mostly Cloudy
1:15 PM 84.7 °F 91.0 °F 72.7 °F 67% 30.02 in 10.0 mi SE 12.7 mph 19.6 mph N/A   Scattered Clouds
1:35 PM 84.9 °F 91.4 °F 72.9 °F 67% 30.02 in 10.0 mi SSE 11.5 mph 19.6 mph N/A   Scattered Clouds
1:55 PM 85.5 °F 92.2 °F 72.9 °F 66% 30.00 in 10.0 mi SE 15.0 mph 18.4 mph N/A   Scattered Clouds
2:15 PM 85.3 °F 91.5 °F 72.5 °F 65% 29.99 in 10.0 mi SE 15.0 mph 19.6 mph N/A   Scattered Clouds
2:35 PM 85.8 °F 92.2 °F 72.3 °F 64% 29.98 in 10.0 mi SE 10.4 mph 17.3 mph N/A   Scattered Clouds
2:55 PM 85.1 °F 91.5 °F 72.5 °F 66% 29.98 in 10.0 mi SE 11.5 mph - N/A   Scattered Clouds
3:15 PM 85.1 °F 91.8 °F 73.0 °F 67% 29.97 in 10.0 mi SE 11.5 mph - N/A   Mostly Cloudy
3:35 PM 84.4 °F 90.6 °F 72.9 °F 68% 29.97 in 10.0 mi ESE 11.5 mph - N/A   Scattered Clouds
3:55 PM 84.2 °F 90.9 °F 73.4 °F 70% 29.97 in 10.0 mi SE 9.2 mph - N/A   Scattered Clouds
4:15 PM 84.2 °F 90.3 °F 72.7 °F 68% 29.97 in 10.0 mi SE 13.8 mph - N/A   Mostly Cloudy
4:35 PM 83.8 °F 89.8 °F 72.7 °F 69% 29.97 in 10.0 mi SE 8.1 mph - N/A   Scattered Clouds
4:55 PM 83.5 °F 89.4 °F 72.7 °F 70% 29.97 in 10.0 mi SE 9.2 mph - N/A   Scattered Clouds
5:15 PM 83.1 °F 88.9 °F 72.7 °F 71% 29.97 in 10.0 mi SE 10.4 mph - N/A   Scattered Clouds
5:35 PM 83.3 °F 89.0 °F 72.5 °F 70% 29.97 in 10.0 mi SE 10.4 mph - N/A   Clear
5:55 PM 82.4 °F 87.7 °F 72.5 °F 72% 29.97 in 10.0 mi SE 9.2 mph - N/A   Clear
6:15 PM 81.9 °F 86.6 °F 72.1 °F 72% 29.97 in 10.0 mi SE 9.2 mph - N/A   Clear
6:35 PM 80.8 °F 84.9 °F 72.0 °F 74% 29.96 in 10.0 mi SE 6.9 mph - N/A   Clear
6:55 PM 79.7 °F - 72.3 °F 78% 29.97 in 10.0 mi SE 5.8 mph - N/A   Clear
7:15 PM 78.3 °F - 72.5 °F 82% 29.97 in 10.0 mi ESE 4.6 mph - N/A   Clear
7:35 PM 77.2 °F - 72.1 °F 84% 29.97 in 10.0 mi ESE 4.6 mph - N/A   Clear
7:55 PM 76.5 °F - 72.1 °F 86% 29.97 in 10.0 mi East 5.8 mph - N/A   Clear
8:15 PM 76.1 °F - 72.0 °F 87% 29.98 in 10.0 mi ESE 4.6 mph - N/A   Clear
8:35 PM 75.4 °F - 71.8 °F 89% 29.98 in 10.0 mi East 3.5 mph - N/A   Clear
8:55 PM 75.2 °F - 71.8 °F 89% 29.99 in 10.0 mi Calm Calm - N/A   Clear
9:15 PM 74.7 °F - 71.8 °F 91% 30.00 in 10.0 mi Calm Calm - N/A   Scattered Clouds
9:35 PM 74.7 °F - 71.8 °F 91% 30.00 in 10.0 mi Calm Calm - N/A   Scattered Clouds
9:55 PM 73.8 °F - 71.6 °F 93% 30.01 in 10.0 mi Calm Calm - N/A   Clear
10:15 PM 73.4 °F - 71.6 °F 94% 30.01 in 10.0 mi ESE 4.6 mph - N/A   Clear
10:35 PM 73.8 °F - 71.6 °F 93% 30.00 in 10.0 mi ESE 5.8 mph - N/A   Clear
10:55 PM 74.7 °F - 72.1 °F 92% 30.00 in 10.0 mi ESE 4.6 mph - N/A   Clear
11:15 PM 74.7 °F - 72.0 °F 91% 30.00 in 10.0 mi ESE 4.6 mph - N/A   Clear
11:35 PM 74.1 °F - 71.8 °F 92% 29.99 in 10.0 mi ESE 4.6 mph - N/A   Clear
11:55 PM 74.5 °F - 72.0 °F 92% 29.98 in 10.0 mi ESE 4.6 mph - N/A   Clear